createdAt,value
2022-10-19T00:01:29.636Z,100.00
2022-10-19T00:03:56.043Z,100.00
2022-10-19T00:06:26.338Z,100.00
2022-10-19T00:08:54.817Z,100.00
2022-10-19T00:11:21.750Z,100.00
2022-10-19T00:13:48.130Z,100.00
2022-10-19T00:16:16.414Z,100.00
2022-10-19T00:18:44.834Z,100.00
2022-10-19T00:21:15.318Z,100.00
2022-10-19T00:23:42.318Z,100.00
2022-10-19T00:26:08.858Z,100.00
2022-10-19T00:28:35.933Z,100.00
2022-10-19T00:31:05.322Z,100.00
2022-10-19T00:33:31.989Z,100.00
2022-10-19T00:35:58.369Z,100.00
2022-10-19T00:38:25.008Z,100.00
2022-10-19T00:40:51.516Z,100.00
2022-10-19T00:43:20.997Z,100.00
2022-10-19T00:45:47.721Z,100.00
2022-10-19T00:48:19.065Z,100.00
2022-10-19T00:50:46.882Z,100.00
2022-10-19T00:53:13.353Z,100.00
2022-10-19T00:55:41.000Z,100.00
2022-10-19T00:58:08.007Z,100.00
2022-10-19T01:00:34.593Z,100.00
2022-10-19T01:03:02.756Z,100.00
2022-10-19T01:05:30.755Z,100.00
2022-10-19T01:07:57.411Z,100.00
2022-10-19T01:10:44.771Z,100.00
2022-10-19T01:13:25.313Z,100.00
2022-10-19T01:16:02.510Z,100.00
2022-10-19T01:18:45.902Z,100.00
2022-10-19T01:21:20.201Z,100.00
2022-10-19T01:24:01.598Z,100.00
2022-10-19T01:27:06.218Z,100.00
2022-10-19T01:30:02.742Z,100.00
2022-10-19T01:32:44.218Z,100.00
2022-10-19T01:35:28.629Z,100.00
2022-10-19T01:38:40.851Z,100.00
2022-10-19T01:41:16.695Z,100.00
2022-10-19T01:43:50.854Z,100.00
2022-10-19T01:46:29.120Z,100.00
2022-10-19T01:49:02.398Z,100.00
2022-10-19T01:51:40.248Z,100.00
2022-10-19T01:54:11.924Z,100.00
2022-10-19T01:56:42.185Z,100.00
2022-10-19T01:59:10.735Z,100.00
2022-10-19T02:01:41.379Z,100.00
2022-10-19T02:04:08.748Z,100.00
2022-10-19T02:06:35.619Z,100.00
2022-10-19T02:09:02.051Z,100.00
2022-10-19T02:11:30.665Z,100.00
2022-10-19T02:14:04.134Z,100.00
2022-10-19T02:16:40.876Z,100.00
2022-10-19T02:19:08.713Z,100.00
2022-10-19T02:21:35.134Z,100.00
2022-10-19T02:24:01.463Z,100.00
2022-10-19T02:26:28.087Z,100.00
2022-10-19T02:28:56.369Z,100.00
2022-10-19T02:31:23.549Z,100.00
2022-10-19T02:33:49.972Z,100.00
2022-10-19T02:36:17.320Z,100.00
2022-10-19T02:38:43.942Z,100.00
2022-10-19T02:41:34.530Z,100.00
2022-10-19T02:44:05.412Z,100.00
2022-10-19T02:49:13.207Z,100.00
2022-10-19T02:51:55.525Z,100.00
2022-10-19T02:54:21.903Z,100.00
2022-10-19T02:56:48.241Z,100.00
2022-10-19T02:59:14.590Z,100.00
2022-10-19T03:01:40.958Z,100.00
2022-10-19T03:04:07.295Z,100.00
2022-10-19T03:06:33.797Z,100.00
2022-10-19T03:09:00.416Z,100.00
2022-10-19T03:11:26.822Z,100.00
2022-10-19T03:13:53.231Z,100.00
2022-10-19T03:16:19.736Z,100.00
2022-10-19T03:18:48.746Z,100.00
2022-10-19T03:21:15.177Z,100.00
2022-10-19T03:23:41.874Z,100.00
2022-10-19T03:26:12.414Z,100.00
2022-10-19T03:28:39.052Z,100.00
2022-10-19T03:31:05.799Z,100.00
2022-10-19T03:33:32.166Z,100.00
2022-10-19T03:36:17.714Z,100.00
2022-10-19T03:38:44.132Z,100.00
2022-10-19T03:41:10.820Z,100.00
2022-10-19T03:43:37.275Z,100.00
2022-10-19T03:46:03.760Z,100.00
2022-10-19T03:48:30.189Z,100.00
2022-10-19T03:51:07.654Z,100.00
2022-10-19T03:53:34.657Z,100.00
2022-10-19T03:56:03.082Z,100.00
2022-10-19T03:58:30.973Z,100.00
2022-10-19T04:00:57.416Z,100.00
2022-10-19T04:03:23.874Z,100.00
2022-10-19T04:05:50.314Z,100.00
2022-10-19T04:08:16.696Z,100.00
2022-10-19T04:10:43.137Z,100.00
2022-10-19T04:13:09.544Z,100.00
2022-10-19T04:15:35.918Z,100.00
2022-10-19T04:18:02.433Z,100.00
2022-10-19T04:20:28.761Z,100.00
2022-10-19T04:22:55.136Z,100.00
2022-10-19T04:25:21.658Z,100.00
2022-10-19T04:27:48.024Z,100.00
2022-10-19T04:30:14.397Z,100.00
2022-10-19T04:32:40.776Z,100.00
2022-10-19T04:35:07.715Z,100.00
2022-10-19T04:37:34.345Z,100.00
2022-10-19T04:40:00.972Z,100.00
2022-10-19T04:42:27.302Z,100.00
2022-10-19T04:44:53.662Z,100.00
2022-10-19T04:47:20.065Z,100.00
2022-10-19T04:49:46.432Z,100.00
2022-10-19T04:52:12.789Z,100.00
2022-10-19T04:54:39.146Z,100.00
2022-10-19T04:57:05.530Z,100.00
2022-10-19T04:59:32.149Z,100.00
2022-10-19T05:01:58.501Z,100.00
2022-10-19T05:04:24.896Z,100.00
2022-10-19T05:06:51.282Z,100.00
2022-10-19T05:09:17.651Z,100.00
2022-10-19T05:11:44.032Z,100.00
2022-10-19T05:14:10.566Z,100.00
2022-10-19T05:16:37.002Z,100.00
2022-10-19T05:19:03.606Z,100.00
2022-10-19T05:21:30.030Z,100.00
2022-10-19T05:23:57.391Z,100.00
2022-10-19T05:26:26.604Z,100.00
2022-10-19T05:28:59.272Z,100.00
2022-10-19T05:31:31.188Z,100.00
2022-10-19T05:33:58.851Z,100.00
2022-10-19T05:36:34.410Z,100.00
2022-10-19T05:39:22.411Z,100.00
2022-10-19T05:41:49.144Z,100.00
2022-10-19T05:44:21.150Z,100.00
2022-10-19T05:46:48.724Z,100.00
2022-10-19T05:49:17.342Z,100.00
2022-10-19T05:51:43.786Z,100.00
2022-10-19T05:54:11.465Z,100.00
2022-10-19T05:56:39.202Z,100.00
2022-10-19T05:59:07.094Z,100.00
2022-10-19T06:01:34.378Z,100.00
2022-10-19T06:04:02.324Z,100.00
2022-10-19T06:06:28.973Z,100.00
2022-10-19T06:08:56.820Z,100.00
2022-10-19T06:11:26.345Z,100.00
2022-10-19T06:13:55.446Z,100.00
2022-10-19T06:16:23.947Z,100.00
2022-10-19T06:18:50.671Z,100.00
2022-10-19T06:21:19.671Z,100.00
2022-10-19T06:24:03.854Z,100.00
2022-10-19T06:26:32.566Z,100.00
2022-10-19T06:29:00.991Z,100.00
2022-10-19T06:31:28.817Z,100.00
2022-10-19T06:33:56.097Z,100.00
2022-10-19T06:36:25.348Z,100.00
2022-10-19T06:38:53.142Z,100.00
2022-10-19T06:41:20.713Z,100.00
2022-10-19T06:43:51.839Z,100.00
2022-10-19T06:46:20.397Z,100.00
2022-10-19T06:49:04.829Z,100.00
2022-10-19T06:51:33.910Z,100.00
2022-10-19T06:54:00.283Z,100.00
2022-10-19T06:56:26.865Z,100.00
2022-10-19T06:58:54.267Z,100.00
2022-10-19T07:01:21.624Z,100.00
2022-10-19T07:03:48.064Z,100.00
2022-10-19T07:06:14.597Z,100.00
2022-10-19T07:08:42.352Z,100.00
2022-10-19T07:11:12.049Z,100.00
2022-10-19T07:13:38.827Z,100.00
2022-10-19T07:16:15.796Z,100.00
2022-10-19T07:18:46.462Z,100.00
2022-10-19T07:21:14.990Z,100.00
2022-10-19T07:23:44.132Z,100.00
2022-10-19T07:26:30.444Z,100.00
2022-10-19T07:28:57.605Z,100.00
2022-10-19T07:31:25.471Z,99.51
2022-10-19T07:33:59.424Z,99.78
2022-10-19T07:36:27.469Z,100.00
2022-10-19T07:38:53.916Z,100.00
2022-10-19T07:41:22.143Z,99.60
2022-10-19T07:43:49.424Z,99.49
2022-10-19T07:46:18.443Z,98.72
2022-10-19T07:48:45.550Z,98.41
2022-10-19T07:51:13.794Z,97.88
2022-10-19T07:53:40.673Z,96.46
2022-10-19T07:56:09.819Z,95.03
2022-10-19T07:58:36.661Z,95.26
2022-10-19T08:01:05.688Z,95.23
2022-10-19T08:06:20.576Z,94.23
2022-10-19T08:08:47.923Z,91.35
2022-10-19T08:11:26.703Z,91.42
2022-10-19T08:13:53.694Z,88.85
2022-10-19T08:16:28.108Z,87.35
2022-10-19T08:18:58.756Z,85.08
2022-10-19T08:21:26.971Z,84.95
2022-10-19T08:23:53.377Z,83.07
2022-10-19T08:26:20.391Z,81.89
2022-10-19T08:28:47.144Z,83.07
2022-10-19T08:31:16.522Z,82.21
2022-10-19T08:33:43.203Z,83.53
2022-10-19T08:36:11.466Z,83.26
2022-10-19T08:38:38.463Z,81.88
2022-10-19T08:41:29.370Z,79.78
2022-10-19T08:44:04.027Z,79.05
2022-10-19T08:46:56.026Z,79.73
2022-10-19T08:49:25.708Z,78.05
2022-10-19T08:52:00.485Z,78.89
2022-10-19T08:54:54.321Z,80.38
2022-10-19T08:57:32.970Z,79.82
2022-10-19T09:00:24.826Z,78.38
2022-10-19T09:02:57.176Z,76.07
2022-10-19T09:05:39.189Z,76.26
2022-10-19T09:08:08.277Z,75.97
2022-10-19T09:10:40.892Z,75.38
2022-10-19T09:13:16.309Z,76.42
2022-10-19T09:15:45.984Z,78.45
2022-10-19T09:18:19.548Z,76.79
2022-10-19T09:20:49.137Z,77.51
2022-10-19T09:23:26.293Z,77.00
2022-10-19T09:25:53.527Z,76.61
2022-10-19T09:28:45.001Z,76.98
2022-10-19T09:31:42.690Z,75.36
2022-10-19T09:34:32.833Z,77.49
2022-10-19T09:37:00.269Z,77.47
2022-10-19T09:39:30.623Z,76.87
2022-10-19T09:42:07.968Z,75.33
2022-10-19T09:44:34.730Z,75.74
2022-10-19T09:47:26.126Z,75.76
2022-10-19T09:50:08.357Z,74.28
2022-10-19T09:52:36.434Z,73.14
2022-10-19T09:55:06.062Z,73.86
2022-10-19T09:57:32.951Z,72.91
2022-10-19T09:59:59.552Z,70.91
2022-10-19T10:02:32.131Z,70.56
2022-10-19T10:05:15.066Z,70.62
2022-10-19T10:07:41.980Z,71.27
2022-10-19T10:10:30.645Z,69.21
2022-10-19T10:13:00.850Z,71.22
2022-10-19T10:15:35.443Z,69.06
2022-10-19T10:18:02.950Z,68.50
2022-10-19T10:20:32.469Z,66.29
2022-10-19T10:23:01.739Z,67.85
2022-10-19T10:25:33.700Z,65.39
2022-10-19T10:28:18.615Z,66.95
2022-10-19T10:30:46.897Z,66.58
2022-10-19T10:33:33.315Z,66.07
2022-10-19T10:36:09.726Z,67.26
2022-10-19T10:38:41.426Z,68.07
2022-10-19T10:41:14.731Z,68.64
2022-10-19T10:43:56.006Z,68.53
2022-10-19T10:46:32.722Z,69.30
2022-10-19T10:49:02.949Z,70.06
2022-10-19T10:51:43.632Z,69.55
2022-10-19T10:54:19.015Z,68.95
2022-10-19T10:57:06.256Z,70.32
2022-10-19T10:59:43.118Z,71.03
2022-10-19T11:05:02.744Z,72.39
2022-10-19T11:07:32.604Z,73.27
2022-10-19T11:10:06.724Z,73.37
2022-10-19T11:12:41.683Z,73.43
2022-10-19T11:18:09.975Z,74.14
2022-10-19T11:20:43.378Z,74.19
2022-10-19T11:23:51.781Z,72.78
2022-10-19T11:26:35.172Z,73.07
2022-10-19T11:29:04.613Z,73.90
2022-10-19T11:31:37.100Z,72.70
2022-10-19T11:34:23.626Z,72.41
2022-10-19T11:37:30.965Z,71.63
2022-10-19T11:40:23.064Z,71.91
2022-10-19T11:43:02.658Z,72.04
2022-10-19T11:45:31.941Z,70.87
2022-10-19T11:48:20.738Z,67.92
2022-10-19T11:51:16.812Z,70.21
2022-10-19T11:54:14.607Z,69.37
2022-10-19T11:57:06.356Z,69.71
2022-10-19T11:59:47.829Z,69.34
2022-10-19T12:02:41.671Z,68.41
2022-10-19T12:05:32.840Z,69.41
2022-10-19T12:08:31.687Z,68.19
2022-10-19T12:11:09.867Z,67.57
2022-10-19T12:13:49.142Z,67.14
2022-10-19T12:16:17.242Z,66.04
2022-10-19T12:18:48.936Z,65.65
2022-10-19T12:21:39.850Z,63.52
2022-10-19T12:24:24.415Z,61.36
2022-10-19T12:26:53.704Z,62.88
2022-10-19T12:29:26.645Z,62.48
2022-10-19T12:31:55.258Z,62.29
2022-10-19T12:34:53.971Z,58.87
2022-10-19T12:37:38.530Z,58.53
2022-10-19T12:40:05.021Z,56.96
2022-10-19T12:42:59.439Z,55.56
2022-10-19T12:45:33.819Z,56.63
2022-10-19T12:48:11.020Z,54.50
2022-10-19T12:50:49.213Z,55.64
2022-10-19T12:53:38.108Z,57.67
2022-10-19T12:56:24.068Z,54.83
2022-10-19T12:58:57.369Z,52.06
2022-10-19T13:01:35.751Z,52.97
2022-10-19T13:04:22.689Z,54.18
2022-10-19T13:06:59.114Z,54.86
2022-10-19T13:09:35.248Z,53.43
2022-10-19T13:12:17.672Z,55.19
2022-10-19T13:14:55.476Z,56.92
2022-10-19T13:17:34.346Z,57.22
2022-10-19T13:20:13.136Z,56.49
2022-10-19T13:22:40.079Z,57.03
2022-10-19T13:25:21.824Z,61.38
2022-10-19T13:27:52.447Z,63.21
2022-10-19T13:30:41.737Z,62.88
2022-10-19T13:33:30.129Z,60.25
2022-10-19T13:35:59.478Z,60.70
2022-10-19T13:38:45.586Z,61.57
2022-10-19T13:41:25.707Z,60.65
2022-10-19T13:43:57.810Z,62.30
2022-10-19T13:46:30.192Z,61.02
2022-10-19T13:49:27.745Z,62.17
2022-10-19T13:52:11.727Z,63.17
2022-10-19T13:54:49.337Z,59.67
2022-10-19T13:57:50.065Z,58.11
2022-10-19T14:00:22.286Z,53.92
2022-10-19T14:03:05.465Z,52.79
2022-10-19T14:06:06.452Z,53.19
2022-10-19T14:08:42.103Z,53.31
2022-10-19T14:11:16.371Z,51.95
2022-10-19T14:13:43.424Z,53.52
2022-10-19T14:16:20.914Z,54.65
2022-10-19T14:18:56.667Z,56.26
2022-10-19T14:21:32.169Z,58.37
2022-10-19T14:23:59.449Z,57.34
2022-10-19T14:26:32.354Z,57.93
2022-10-19T14:28:59.893Z,62.38
2022-10-19T14:31:34.044Z,65.22
2022-10-19T14:34:04.310Z,69.23
2022-10-19T14:36:36.010Z,71.96
2022-10-19T14:39:02.581Z,73.21
2022-10-19T14:44:43.395Z,75.68
2022-10-19T14:47:23.933Z,76.69
2022-10-19T14:49:50.792Z,77.69
2022-10-19T14:52:22.294Z,78.80
2022-10-19T14:54:54.170Z,79.32
2022-10-19T14:57:27.345Z,78.42
2022-10-19T15:00:03.145Z,78.41
2022-10-19T15:02:38.609Z,78.41
2022-10-19T15:05:14.933Z,78.94
2022-10-19T15:07:43.231Z,78.71
2022-10-19T15:10:18.594Z,79.41
2022-10-19T15:12:45.738Z,79.68
2022-10-19T15:15:25.337Z,80.39
2022-10-19T15:17:56.143Z,81.01
2022-10-19T15:20:39.659Z,81.26
2022-10-19T15:23:34.414Z,81.28
2022-10-19T15:26:17.271Z,81.24
2022-10-19T15:28:44.414Z,81.78
2022-10-19T15:31:17.075Z,82.31
2022-10-19T15:33:47.752Z,82.21
2022-10-19T15:36:17.370Z,82.42
2022-10-19T15:38:45.662Z,82.92
2022-10-19T15:41:18.800Z,83.49
2022-10-19T15:43:50.880Z,83.49
2022-10-19T15:46:32.285Z,84.26
2022-10-19T15:49:23.697Z,85.08
2022-10-19T15:51:50.547Z,86.02
2022-10-19T15:54:19.005Z,86.98
2022-10-19T15:56:50.417Z,87.02
2022-10-19T15:59:19.995Z,87.05
2022-10-19T16:01:51.378Z,87.40
2022-10-19T16:04:20.197Z,89.05
2022-10-19T16:06:46.862Z,89.82
2022-10-19T16:09:19.347Z,90.14
2022-10-19T16:11:46.103Z,90.50
2022-10-19T16:14:12.977Z,90.71
2022-10-19T16:16:39.702Z,91.14
2022-10-19T16:19:06.189Z,90.91
2022-10-19T16:21:35.544Z,90.91
2022-10-19T16:24:01.964Z,91.60
2022-10-19T16:26:29.182Z,92.35
2022-10-19T16:28:56.585Z,91.98
2022-10-19T16:31:24.034Z,93.08
2022-10-19T16:33:50.735Z,93.38
2022-10-19T16:36:20.145Z,93.87
2022-10-19T16:38:47.731Z,94.64
2022-10-19T16:41:14.636Z,94.37
2022-10-19T16:43:41.148Z,94.92
2022-10-19T16:46:07.677Z,95.22
2022-10-19T16:48:34.203Z,94.83
2022-10-19T16:51:12.502Z,96.13
2022-10-19T16:53:38.894Z,96.05
2022-10-19T16:56:10.777Z,95.62
2022-10-19T16:58:37.275Z,95.69
2022-10-19T17:01:08.401Z,95.68
2022-10-19T17:03:35.315Z,96.25
2022-10-19T17:06:03.621Z,97.06
2022-10-19T17:08:37.322Z,97.14
2022-10-19T17:11:22.448Z,96.57
2022-10-19T17:13:51.266Z,96.76
2022-10-19T17:16:19.444Z,96.64
2022-10-19T17:18:46.734Z,96.36
2022-10-19T17:21:19.046Z,96.97
2022-10-19T17:23:46.113Z,97.28
2022-10-19T17:26:13.242Z,97.61
2022-10-19T17:28:40.113Z,97.74
2022-10-19T17:31:09.130Z,96.99
2022-10-19T17:33:36.509Z,97.28
2022-10-19T17:36:14.745Z,97.06
2022-10-19T17:38:41.970Z,96.93
2022-10-19T17:41:11.622Z,96.62
2022-10-19T17:43:39.655Z,96.90
2022-10-19T17:46:08.397Z,97.77
2022-10-19T17:48:36.318Z,97.57
2022-10-19T17:51:10.432Z,97.63
2022-10-19T17:53:36.804Z,98.20
2022-10-19T17:56:06.582Z,98.16
2022-10-19T17:58:36.416Z,98.39
2022-10-19T18:01:07.392Z,98.52
2022-10-19T18:03:35.363Z,98.92
2022-10-19T18:06:11.969Z,99.11
2022-10-19T18:08:41.238Z,98.78
2022-10-19T18:11:08.986Z,99.70
2022-10-19T18:16:10.779Z,100.00
2022-10-19T18:18:38.545Z,100.00
2022-10-19T18:21:07.161Z,100.00
2022-10-19T18:23:33.675Z,100.00
2022-10-19T18:26:19.696Z,100.00
2022-10-19T18:28:46.531Z,100.00
2022-10-19T18:31:21.333Z,100.00
2022-10-19T18:33:54.203Z,100.00
2022-10-19T18:36:20.897Z,100.00
2022-10-19T18:38:55.301Z,100.00
2022-10-19T18:41:22.059Z,100.00
2022-10-19T18:44:04.341Z,100.00
2022-10-19T18:46:32.483Z,100.00
2022-10-19T18:49:04.010Z,100.00
2022-10-19T18:51:31.826Z,100.00
2022-10-19T18:53:59.033Z,100.00
2022-10-19T18:56:26.272Z,100.00
2022-10-19T18:58:52.686Z,100.00
2022-10-19T19:01:26.434Z,100.00
2022-10-19T19:03:55.489Z,100.00
2022-10-19T19:06:29.266Z,100.00
2022-10-19T19:08:57.671Z,100.00
2022-10-19T19:11:27.014Z,100.00
2022-10-19T19:13:55.988Z,100.00
2022-10-19T19:16:24.248Z,100.00
2022-10-19T19:18:51.433Z,100.00
2022-10-19T19:21:20.788Z,100.00
2022-10-19T19:23:48.149Z,100.00
2022-10-19T19:26:16.963Z,100.00
2022-10-19T19:28:45.269Z,100.00
2022-10-19T19:31:17.028Z,100.00
2022-10-19T19:33:44.814Z,100.00
2022-10-19T19:36:13.929Z,100.00
2022-10-19T19:38:41.126Z,100.00
2022-10-19T19:41:09.156Z,100.00
2022-10-19T19:43:37.545Z,100.00
2022-10-19T19:46:09.381Z,100.00
2022-10-19T19:48:36.743Z,100.00
2022-10-19T19:51:03.538Z,100.00
2022-10-19T19:53:29.973Z,100.00
2022-10-19T19:55:56.337Z,100.00
2022-10-19T19:58:22.674Z,100.00
2022-10-19T20:00:49.073Z,100.00
2022-10-19T20:03:16.244Z,100.00
2022-10-19T20:05:42.673Z,100.00
2022-10-19T20:08:09.472Z,100.00
2022-10-19T20:10:40.851Z,100.00
2022-10-19T20:13:07.807Z,100.00
2022-10-19T20:15:37.623Z,100.00
2022-10-19T20:18:04.212Z,100.00
2022-10-19T20:20:30.654Z,100.00
2022-10-19T20:22:57.392Z,100.00
2022-10-19T20:25:23.741Z,100.00
2022-10-19T20:27:50.103Z,100.00
2022-10-19T20:30:16.518Z,100.00
2022-10-19T20:32:42.871Z,100.00
2022-10-19T20:35:09.480Z,100.00
2022-10-19T20:37:35.858Z,100.00
2022-10-19T20:40:07.438Z,100.00
2022-10-19T20:42:35.381Z,100.00
2022-10-19T20:45:01.916Z,100.00
2022-10-19T20:47:28.258Z,100.00
2022-10-19T20:49:54.736Z,100.00
2022-10-19T20:52:21.184Z,100.00
2022-10-19T20:54:48.388Z,100.00
2022-10-19T20:57:15.081Z,100.00
2022-10-19T20:59:43.692Z,100.00
2022-10-19T21:02:10.748Z,100.00
2022-10-19T21:04:37.310Z,100.00
2022-10-19T21:07:04.880Z,100.00
2022-10-19T21:09:31.441Z,100.00
2022-10-19T21:11:58.089Z,100.00
2022-10-19T21:14:28.433Z,100.00
2022-10-19T21:16:59.741Z,100.00
2022-10-19T21:19:27.969Z,100.00
2022-10-19T21:21:57.840Z,100.00
2022-10-19T21:24:28.095Z,100.00
2022-10-19T21:26:54.561Z,100.00
2022-10-19T21:29:21.367Z,100.00
2022-10-19T21:31:50.134Z,100.00
2022-10-19T21:34:22.557Z,100.00
2022-10-19T21:36:49.234Z,100.00
2022-10-19T21:39:15.823Z,100.00
2022-10-19T21:41:42.209Z,100.00
2022-10-19T21:44:08.861Z,100.00
2022-10-19T21:46:35.261Z,100.00
2022-10-19T21:49:01.633Z,100.00
2022-10-19T21:51:35.294Z,100.00
2022-10-19T21:54:03.433Z,100.00
2022-10-19T21:56:29.936Z,100.00
2022-10-19T21:58:56.735Z,100.00
2022-10-19T22:01:26.487Z,100.00
2022-10-19T22:04:00.190Z,100.00
2022-10-19T22:06:28.554Z,100.00
2022-10-19T22:08:55.871Z,100.00
2022-10-19T22:11:23.546Z,100.00
2022-10-19T22:13:53.705Z,100.00
2022-10-19T22:16:20.901Z,100.00
2022-10-19T22:18:48.198Z,100.00
2022-10-19T22:21:17.757Z,100.00
2022-10-19T22:23:45.121Z,100.00
2022-10-19T22:26:21.249Z,100.00
2022-10-19T22:28:47.782Z,100.00
2022-10-19T22:31:14.170Z,100.00
2022-10-19T22:33:40.546Z,100.00
2022-10-19T22:36:08.467Z,100.00
2022-10-19T22:38:35.279Z,100.00
2022-10-19T22:41:58.231Z,100.00
2022-10-19T22:44:24.603Z,100.00
2022-10-19T22:46:50.957Z,100.00
2022-10-19T22:49:17.328Z,100.00
2022-10-19T22:51:43.722Z,100.00
2022-10-19T22:54:10.354Z,100.00
2022-10-19T22:56:36.878Z,100.00
2022-10-19T22:59:06.430Z,100.00
2022-10-19T23:01:33.474Z,100.00
2022-10-19T23:04:00.088Z,100.00
2022-10-19T23:06:26.583Z,100.00
2022-10-19T23:08:53.847Z,100.00
2022-10-19T23:11:20.871Z,100.00
2022-10-19T23:13:47.461Z,100.00
2022-10-19T23:16:14.018Z,100.00
2022-10-19T23:18:41.303Z,100.00
2022-10-19T23:21:11.025Z,100.00
2022-10-19T23:23:37.501Z,100.00
2022-10-19T23:26:05.538Z,100.00
2022-10-19T23:28:33.633Z,100.00
2022-10-19T23:31:05.333Z,100.00
2022-10-19T23:33:32.101Z,100.00
2022-10-19T23:36:28.963Z,100.00
2022-10-19T23:38:56.849Z,100.00
2022-10-19T23:41:23.680Z,100.00
2022-10-19T23:43:50.393Z,100.00
2022-10-19T23:46:16.872Z,100.00
2022-10-19T23:48:43.480Z,100.00
2022-10-19T23:51:14.513Z,100.00
2022-10-19T23:53:43.221Z,100.00
2022-10-19T23:56:16.798Z,100.00
2022-10-19T23:58:43.802Z,100.00
